Bradford, Texas
Current Conditions -  °F | °C
As of 3:15 PM on Sunday 23 Nov 2014 (Local Time) from KPSN Reporting Station
Clear Clear  
Wind Chill: 77°   Ceiling: Unl
Heat Index: 78°   Visibility: 10mi
Dew Point: 46°   Wind: 16mph
Humidity: 32%   Direction: 220°SW
Pressure: 29.46"   Gusts: 23mph
Location:  31.935°N, 95.7672°W
Report Text: KPSN 232115Z AUTO 22014G20KT 10SM CLR 25/07 A2946 RMK AO2 T02510075
Loading
Personal Weather Stations






























Interactive Weather Map New forecast layout! Learn more

10-Day Weather Forecast

Advertisements
Track Severe Weather on mobile